Time;durP1;ratioP1;P1;durP2;ratioP2;P2;SDS_P1;SDS_P2;PMS_P1;PMS_P2;Temp;Humidity;BMP_temperature;BMP_pressure;BME280_temperature;BME280_humidity;BME280_pressure;Samples;Min_cycle;Max_cycle;Signal;HPM_P1;HPM_P2
2021/04/30 00:00:54;;;;;;;1999.90;999.90;;;;;;;15.63;93.60;95460.53;5070878;28;20212;-62
2021/04/30 00:03:21;;;;;;;1999.90;999.90;;;;;;;15.60;93.93;95458.53;5071012;28;20195;-61
2021/04/30 00:05:49;;;;;;;1999.90;999.90;;;;;;;15.71;93.76;95459.66;5070843;28;20228;-62
2021/04/30 00:08:16;;;;;;;1999.90;999.90;;;;;;;15.70;93.37;95458.09;5070648;28;20279;-62
2021/04/30 00:10:44;;;;;;;1999.90;999.90;;;;;;;15.68;93.81;95462.94;5070673;28;20196;-62
2021/04/30 00:13:12;;;;;;;1999.90;999.90;;;;;;;15.76;92.84;95462.81;5070247;28;20223;-61
2021/04/30 00:15:39;;;;;;;1999.90;999.90;;;;;;;15.74;93.45;95466.88;5070274;28;20196;-62
2021/04/30 00:18:06;;;;;;;1999.90;999.90;;;;;;;15.72;93.30;95469.81;5070355;28;20208;-61
2021/04/30 00:20:35;;;;;;;1999.90;999.90;;;;;;;15.74;92.68;95461.63;5070681;28;20203;-61
2021/04/30 00:23:06;;;;;;;1999.90;999.90;;;;;;;15.72;93.17;95466.41;5070301;28;20196;-63
2021/04/30 00:25:32;;;;;;;1999.90;999.90;;;;;;;15.85;92.13;95465.31;5070286;28;20235;-61
2021/04/30 00:27:59;;;;;;;1999.90;999.90;;;;;;;15.81;92.16;95465.22;5070213;28;20192;-61
2021/04/30 00:30:26;;;;;;;1999.90;999.90;;;;;;;15.89;91.95;95468.81;5070285;28;20284;-61
2021/04/30 00:32:54;;;;;;;1999.90;999.90;;;;;;;15.88;91.63;95470.69;5070213;28;20196;-62
2021/04/30 00:35:21;;;;;;;1999.90;999.90;;;;;;;15.82;92.39;95468.63;5070368;28;20192;-62
2021/04/30 00:37:47;;;;;;;1999.90;999.90;;;;;;;16.08;90.19;95469.06;5070135;28;20203;-60
2021/04/30 00:40:16;;;;;;;1999.90;999.90;;;;;;;16.02;90.44;95475.63;5070210;28;20249;-63
2021/04/30 00:42:42;;;;;;;1999.90;999.90;;;;;;;15.94;90.95;95479.84;5070137;28;20206;-60
2021/04/30 00:45:17;;;;;;;1999.90;999.90;;;;;;;16.05;90.18;95485.44;5069970;28;20231;-62
2021/04/30 00:47:45;;;;;;;1999.90;999.90;;;;;;;16.05;90.14;95488.06;5070107;28;20597;-62
2021/04/30 00:50:14;;;;;;;1999.90;999.90;;;;;;;15.98;90.42;95498.34;5069982;28;20201;-63
2021/04/30 00:52:42;;;;;;;1999.90;999.90;;;;;;;16.10;89.78;95502.81;5070082;28;20247;-63
2021/04/30 00:55:14;;;;;;;1999.90;999.90;;;;;;;16.01;90.38;95495.06;5070636;28;20192;-62
2021/04/30 00:57:47;;;;;;;1999.90;999.90;;;;;;;16.11;89.68;95499.09;5069959;28;20193;-62
2021/04/30 01:00:17;;;;;;;1999.90;999.90;;;;;;;16.03;89.93;95492.88;5070268;28;20238;-63
2021/04/30 01:02:45;;;;;;;1999.90;999.90;;;;;;;16.03;90.36;95498.13;5070053;28;20193;-62
2021/04/30 01:05:13;;;;;;;1999.90;999.90;;;;;;;15.87;91.35;95498.00;5069768;28;21369;-62
2021/04/30 01:07:41;;;;;;;1999.90;999.90;;;;;;;15.77;92.49;95489.78;5069747;28;20192;-62
2021/04/30 01:10:11;;;;;;;1999.90;999.90;;;;;;;15.78;92.15;95486.09;5070284;28;20295;-62
2021/04/30 01:12:39;;;;;;;1999.90;999.90;;;;;;;15.83;91.89;95486.63;5070034;28;20778;-61
2021/04/30 01:15:10;;;;;;;1999.90;999.90;;;;;;;15.82;91.08;95494.81;5069692;28;20237;-60
2021/04/30 01:17:37;;;;;;;1999.90;999.90;;;;;;;15.79;91.55;95495.47;5069987;28;20204;-62
2021/04/30 01:20:06;;;;;;;1999.90;999.90;;;;;;;15.84;91.10;95500.50;5069735;28;20188;-61
2021/04/30 01:22:35;;;;;;;1999.90;999.90;;;;;;;15.82;91.12;95492.97;5070047;28;20246;-62
2021/04/30 01:25:02;;;;;;;1999.90;999.90;;;;;;;15.92;90.35;95497.78;5069623;28;20235;-63
2021/04/30 01:27:30;;;;;;;1999.90;999.90;;;;;;;15.67;91.62;95505.94;5069824;28;20204;-60
2021/04/30 01:29:57;;;;;;;1999.90;999.90;;;;;;;15.65;92.24;95505.47;5073361;28;20207;-62
2021/04/30 01:32:24;;;;;;;1999.90;999.90;;;;;;;15.62;92.03;95499.03;5074091;28;20640;-62
2021/04/30 01:34:52;;;;;;;1999.90;999.90;;;;;;;15.65;91.56;95498.38;5073624;28;20272;-62
2021/04/30 01:37:19;;;;;;;1999.90;999.90;;;;;;;15.54;92.86;95494.69;5073721;28;20232;-61
2021/04/30 01:39:47;;;;;;;1999.90;999.90;;;;;;;15.46;93.60;95493.63;5073532;28;20671;-62
2021/04/30 01:42:13;;;;;;;1999.90;999.90;;;;;;;15.34;93.70;95493.59;5073636;28;20241;-62
2021/04/30 01:44:40;;;;;;;1999.90;999.90;;;;;;;15.48;92.66;95491.47;5073612;28;20290;-61
2021/04/30 01:47:07;;;;;;;1999.90;999.90;;;;;;;15.21;93.78;95506.97;5073393;28;20278;-61
2021/04/30 01:49:34;;;;;;;1999.90;999.90;;;;;;;14.93;95.46;95501.50;5073735;28;20212;-61
2021/04/30 01:52:01;;;;;;;1999.90;999.90;;;;;;;14.88;96.01;95501.69;5073294;28;20195;-61
2021/04/30 01:54:28;;;;;;;1999.90;999.90;;;;;;;14.91;96.08;95495.81;5073274;28;20246;-62
2021/04/30 01:56:56;;;;;;;1999.90;999.90;;;;;;;14.97;95.89;95494.53;5073402;28;20649;-62
2021/04/30 01:59:22;;;;;;;1999.90;999.90;;;;;;;14.98;95.68;95496.09;5073114;28;20200;-61
2021/04/30 02:01:49;;;;;;;1999.90;999.90;;;;;;;14.88;95.92;95491.25;5073052;28;20196;-63
2021/04/30 02:04:16;;;;;;;1999.90;999.90;;;;;;;14.75;96.56;95497.47;5073495;28;20262;-62
2021/04/30 02:06:44;;;;;;;1999.90;999.90;;;;;;;14.74;97.21;95495.97;5073366;28;20208;-62
2021/04/30 02:09:12;;;;;;;1999.90;999.90;;;;;;;14.58;99.29;95488.69;5073222;28;20200;-63
2021/04/30 02:11:38;;;;;;;1999.90;999.90;;;;;;;14.58;99.27;95503.59;5073009;28;20200;-62
2021/04/30 02:14:06;;;;;;;1999.90;999.90;;;;;;;14.64;98.80;95504.97;5072612;28;20620;-62
2021/04/30 02:16:34;;;;;;;1999.90;999.90;;;;;;;14.64;98.75;95502.34;5072889;28;20717;-63
2021/04/30 02:19:02;;;;;;;1999.90;999.90;;;;;;;14.50;98.90;95501.78;5072878;28;20194;-63
2021/04/30 02:21:31;;;;;;;1999.90;999.90;;;;;;;14.41;99.60;95517.53;5072740;28;20735;-63
2021/04/30 02:23:58;;;;;;;1999.90;999.90;;;;;;;14.41;99.53;95522.00;5072876;28;20230;-63
2021/04/30 02:26:27;;;;;;;1999.90;999.90;;;;;;;14.26;99.77;95517.28;5072681;28;20189;-62
2021/04/30 02:28:54;;;;;;;1999.90;999.90;;;;;;;14.21;100.00;95510.38;5072583;28;20659;-63
2021/04/30 02:31:22;;;;;;;1999.90;999.90;;;;;;;14.09;100.00;95516.31;5072657;28;20193;-63
2021/04/30 02:33:49;;;;;;;1999.90;999.90;;;;;;;13.99;100.00;95524.50;5072606;28;20242;-62
2021/04/30 02:36:16;;;;;;;1999.90;999.90;;;;;;;13.92;100.00;95518.97;5072725;28;20625;-62
2021/04/30 02:38:43;;;;;;;1999.90;999.90;;;;;;;13.92;100.00;95518.97;5072518;28;20235;-64
2021/04/30 02:41:10;;;;;;;1999.90;999.90;;;;;;;13.82;100.00;95518.53;5072500;28;20358;-62
2021/04/30 02:43:37;;;;;;;1999.90;999.90;;;;;;;13.78;100.00;95524.41;5072112;28;20189;-62
2021/04/30 02:46:03;;;;;;;1999.90;999.90;;;;;;;13.69;100.00;95525.50;5072733;28;20285;-62
2021/04/30 02:48:33;;;;;;;1999.90;999.90;;;;;;;13.66;100.00;95524.28;5072255;28;20231;-63
2021/04/30 02:51:03;;;;;;;1999.90;999.90;;;;;;;13.58;100.00;95525.06;5072478;28;20254;-62
2021/04/30 02:53:30;;;;;;;1999.90;999.90;;;;;;;13.57;100.00;95541.81;5072229;28;20656;-62
2021/04/30 02:55:57;;;;;;;1999.90;999.90;;;;;;;13.43;100.00;95538.63;5072159;28;20200;-62
2021/04/30 02:58:23;;;;;;;1999.90;999.90;;;;;;;13.34;100.00;95541.25;5072046;28;20199;-62
2021/04/30 03:00:50;;;;;;;1999.90;999.90;;;;;;;13.24;100.00;95540.78;5072268;28;20223;-62
2021/04/30 03:03:17;;;;;;;1999.90;999.90;;;;;;;13.31;100.00;95551.50;5071911;28;20275;-62
2021/04/30 03:05:45;;;;;;;1999.90;999.90;;;;;;;13.25;100.00;95552.75;5071867;28;20232;-63
2021/04/30 03:08:12;;;;;;;1999.90;999.90;;;;;;;13.21;100.00;95551.81;5071855;28;20698;-63
2021/04/30 03:10:39;;;;;;;1999.90;999.90;;;;;;;13.16;100.00;95563.19;5071964;28;20200;-62
2021/04/30 03:13:06;;;;;;;1999.90;999.90;;;;;;;13.04;100.00;95568.25;5072031;28;20212;-62
2021/04/30 03:15:33;;;;;;;1999.90;999.90;;;;;;;12.97;100.00;95564.53;5072007;28;20792;-62
2021/04/30 03:18:00;;;;;;;1999.90;999.90;;;;;;;12.90;100.00;95573.56;5071917;28;20636;-61
2021/04/30 03:20:27;;;;;;;1999.90;999.90;;;;;;;12.81;100.00;95574.63;5071733;28;20275;-61
2021/04/30 03:22:54;;;;;;;1999.90;999.90;;;;;;;12.69;100.00;95570.03;5071616;28;20674;-62
2021/04/30 03:25:21;;;;;;;1999.90;999.90;;;;;;;12.69;100.00;95562.22;5071424;28;20228;-62
2021/04/30 03:27:48;;;;;;;1999.90;999.90;;;;;;;12.63;100.00;95554.84;5071897;28;20189;-61
2021/04/30 03:30:16;;;;;;;1999.90;999.90;;;;;;;12.49;100.00;95552.34;5071474;28;20193;-62
2021/04/30 03:32:42;;;;;;;1999.90;999.90;;;;;;;12.50;100.00;95554.63;5071320;28;20196;-63
2021/04/30 03:35:15;;;;;;;1999.90;999.90;;;;;;;12.57;100.00;95561.25;5071268;28;20299;-62
2021/04/30 03:37:42;;;;;;;1999.90;999.90;;;;;;;12.51;100.00;95565.84;5071432;28;20336;-61
2021/04/30 03:40:12;;;;;;;1999.90;999.90;;;;;;;12.41;100.00;95572.09;5071638;28;20623;-61
2021/04/30 03:42:38;;;;;;;1999.90;999.90;;;;;;;12.44;100.00;95570.75;5071345;28;20235;-62
2021/04/30 03:45:06;;;;;;;1999.90;999.90;;;;;;;12.49;100.00;95578.41;5071202;28;20329;-61
2021/04/30 03:47:35;;;;;;;1999.90;999.90;;;;;;;12.67;100.00;95584.44;5071222;28;20194;-60
2021/04/30 03:50:02;;;;;;;1999.90;999.90;;;;;;;12.61;100.00;95586.41;5071107;28;20220;-60
2021/04/30 03:52:28;;;;;;;1999.90;999.90;;;;;;;12.45;100.00;95598.34;5070670;28;20683;-62
2021/04/30 03:54:55;;;;;;;1999.90;999.90;;;;;;;12.43;100.00;95597.88;5071252;28;20196;-62
2021/04/30 03:57:23;;;;;;;1999.90;999.90;;;;;;;12.36;100.00;95600.13;5071129;28;20197;-60
2021/04/30 03:59:50;;;;;;;1999.90;999.90;;;;;;;12.30;100.00;95611.78;5070790;28;20189;-60
2021/04/30 04:02:16;;;;;;;1999.90;999.90;;;;;;;11.89;100.00;95612.81;5070956;28;20577;-61
2021/04/30 04:04:43;;;;;;;1999.90;999.90;;;;;;;11.87;100.00;95606.34;5070773;28;20234;-61
2021/04/30 04:07:10;;;;;;;1999.90;999.90;;;;;;;12.04;100.00;95609.03;5070828;28;20575;-63
2021/04/30 04:09:37;;;;;;;1999.90;999.90;;;;;;;12.28;100.00;95611.28;5070635;28;20232;-61
2021/04/30 04:12:05;;;;;;;1999.90;999.90;;;;;;;12.61;100.00;95628.13;5070640;28;20250;-61
2021/04/30 04:14:34;;;;;;;1999.90;999.90;;;;;;;12.71;100.00;95627.84;5070503;28;20715;-62
2021/04/30 04:17:00;;;;;;;1999.90;999.90;;;;;;;13.00;100.00;95629.16;5070644;28;20192;-61
2021/04/30 04:19:28;;;;;;;1999.90;999.90;;;;;;;13.37;100.00;95639.03;5070686;28;20200;-61
2021/04/30 04:21:54;;;;;;;1999.90;999.90;;;;;;;13.72;100.00;95639.78;5070413;28;20192;-60
2021/04/30 04:24:21;;;;;;;1999.90;999.90;;;;;;;14.03;100.00;95653.44;5070384;28;20228;-63
2021/04/30 04:26:48;;;;;;;1999.90;999.90;;;;;;;14.51;98.12;95647.94;5070645;28;20628;-61
2021/04/30 04:29:15;;;;;;;1999.90;999.90;;;;;;;14.77;96.41;95653.06;5070438;28;20192;-62
2021/04/30 04:31:43;;;;;;;1999.90;999.90;;;;;;;15.05;95.37;95663.81;5070289;28;20199;-60
2021/04/30 04:34:11;;;;;;;1999.90;999.90;;;;;;;15.48;94.71;95659.09;5070467;28;20283;-62
2021/04/30 04:36:38;;;;;;;1999.90;999.90;;;;;;;15.71;93.04;95659.53;5070456;28;20660;-60
2021/04/30 04:39:06;;;;;;;1999.90;999.90;;;;;;;16.04;91.11;95669.28;5070458;28;20193;-61
2021/04/30 04:41:33;;;;;;;1999.90;999.90;;;;;;;16.41;89.23;95672.75;5070046;28;20200;-62
2021/04/30 04:43:59;;;;;;;1999.90;999.90;;;;;;;16.49;89.82;95672.66;5070304;28;20204;-60
2021/04/30 04:46:26;;;;;;;1999.90;999.90;;;;;;;16.69;89.87;95692.81;5069937;28;20193;-61
2021/04/30 04:48:54;;;;;;;1999.90;999.90;;;;;;;16.46;90.79;95698.78;5069974;28;20203;-61
2021/04/30 04:51:21;;;;;;;1999.90;999.90;;;;;;;16.28;90.75;95706.06;5070132;28;20192;-63
2021/04/30 04:53:48;;;;;;;1999.90;999.90;;;;;;;16.08;91.46;95705.03;5070195;28;20269;-63
2021/04/30 04:56:15;;;;;;;1999.90;999.90;;;;;;;15.94;91.60;95694.03;5069934;28;20196;-62
2021/04/30 04:58:41;;;;;;;1999.90;999.90;;;;;;;16.01;91.38;95698.75;5070046;28;20192;-62
2021/04/30 05:01:08;;;;;;;1999.90;999.90;;;;;;;15.69;92.51;95695.03;5069847;28;20283;-62
2021/04/30 05:03:35;;;;;;;1999.90;999.90;;;;;;;15.67;92.76;95684.84;5070029;28;20203;-62
2021/04/30 05:06:04;;;;;;;1999.90;999.90;;;;;;;15.62;92.72;95668.56;5069833;28;20235;-62
2021/04/30 05:08:34;;;;;;;1999.90;999.90;;;;;;;15.54;93.76;95672.03;5070167;28;20617;-64
2021/04/30 05:11:03;;;;;;;1999.90;999.90;;;;;;;15.52;93.08;95684.66;5069733;28;20204;-62
2021/04/30 05:13:31;;;;;;;1999.90;999.90;;;;;;;15.38;93.68;95683.03;5069384;28;20644;-63
2021/04/30 05:15:58;;;;;;;1999.90;999.90;;;;;;;15.31;94.14;95687.22;5069750;28;20195;-63
2021/04/30 05:18:25;;;;;;;1999.90;999.90;;;;;;;15.32;95.38;95678.31;5070029;28;20203;-63
2021/04/30 05:20:52;;;;;;;1999.90;999.90;;;;;;;15.55;96.86;95676.16;5069961;28;20192;-63
2021/04/30 05:23:20;;;;;;;1999.90;999.90;;;;;;;15.72;96.09;95670.78;5069794;28;20196;-63
2021/04/30 05:25:49;;;;;;;1999.90;999.90;;;;;;;15.94;96.50;95673.81;5069738;28;20224;-62
2021/04/30 05:28:16;;;;;;;1999.90;999.90;;;;;;;16.18;96.69;95673.16;5069793;28;20296;-63
2021/04/30 05:30:43;;;;;;;1999.90;999.90;;;;;;;16.47;93.45;95666.22;5069663;28;20646;-63
2021/04/30 05:33:10;;;;;;;1999.90;999.90;;;;;;;16.52;92.72;95666.00;5069747;28;20236;-63
2021/04/30 05:35:37;;;;;;;1999.90;999.90;;;;;;;16.66;94.37;95658.59;5069847;28;20656;-62
2021/04/30 05:38:05;;;;;;;1999.90;999.90;;;;;;;16.73;94.86;95664.09;5069671;28;20196;-62
2021/04/30 05:40:33;;;;;;;1999.90;999.90;;;;;;;16.82;92.96;95667.38;5069710;28;20197;-62
2021/04/30 05:43:00;;;;;;;1999.90;999.90;;;;;;;16.91;88.69;95683.75;5069811;28;20719;-62
2021/04/30 05:45:27;;;;;;;1999.90;999.90;;;;;;;17.05;90.89;95694.69;5069590;28;20224;-63
2021/04/30 05:47:54;;;;;;;1999.90;999.90;;;;;;;17.15;91.84;95690.88;5069379;28;20196;-60
2021/04/30 05:50:21;;;;;;;1999.90;999.90;;;;;;;17.27;92.33;95680.34;5069488;28;20224;-62
2021/04/30 05:52:48;;;;;;;1999.90;999.90;;;;;;;17.33;91.73;95680.91;5069495;28;20199;-61
2021/04/30 05:55:15;;;;;;;1999.90;999.90;;;;;;;17.29;92.47;95687.88;5069177;28;20549;-61
2021/04/30 05:57:43;;;;;;;1999.90;999.90;;;;;;;17.49;92.86;95692.22;5069803;28;20292;-64
2021/04/30 06:00:12;;;;;;;1999.90;999.90;;;;;;;17.68;93.13;95700.34;5069428;28;20278;-62
2021/04/30 06:02:39;;;;;;;1999.90;999.90;;;;;;;17.91;89.06;95705.84;5069079;28;20643;-63
2021/04/30 06:05:07;;;;;;;1999.90;999.90;;;;;;;18.08;90.75;95704.81;5069214;28;20728;-62
2021/04/30 06:07:34;;;;;;;1999.90;999.90;;;;;;;18.20;91.48;95705.50;5069078;28;20278;-62
2021/04/30 06:10:02;;;;;;;1999.90;999.90;;;;;;;18.31;90.61;95692.63;5069342;28;20201;-62
2021/04/30 06:12:30;;;;;;;1999.90;999.90;;;;;;;18.57;88.31;95697.44;5069174;28;20220;-63
2021/04/30 06:14:58;;;;;;;1999.90;999.90;;;;;;;18.91;85.38;95702.81;5070764;28;20232;-63
2021/04/30 06:17:25;;;;;;;1999.90;999.90;;;;;;;19.10;85.70;95704.75;5072756;28;20199;-63
2021/04/30 06:19:52;;;;;;;1999.90;999.90;;;;;;;19.26;85.41;95707.34;5072855;28;20196;-62
2021/04/30 06:22:19;;;;;;;1999.90;999.90;;;;;;;19.40;84.36;95702.38;5072617;28;20351;-63
2021/04/30 06:24:45;;;;;;;1999.90;999.90;;;;;;;19.43;85.13;95706.22;5072894;28;20220;-62
2021/04/30 06:27:12;;;;;;;1999.90;999.90;;;;;;;19.61;83.62;95718.69;5072875;28;20196;-62
2021/04/30 06:29:39;;;;;;;1999.90;999.90;;;;;;;19.88;82.32;95709.06;5072518;28;20193;-63
2021/04/30 06:32:07;;;;;;;1999.90;999.90;;;;;;;20.05;78.41;95726.34;5072658;28;20196;-62
2021/04/30 06:34:34;;;;;;;1999.90;999.90;;;;;;;19.95;75.90;95729.53;5072742;28;20204;-65
2021/04/30 06:37:02;;;;;;;1999.90;999.90;;;;;;;20.11;78.73;95720.44;5072501;28;20257;-61
2021/04/30 06:39:28;;;;;;;1999.90;999.90;;;;;;;20.31;81.97;95717.81;5072359;28;20199;-61
2021/04/30 06:41:56;;;;;;;1999.90;999.90;;;;;;;20.43;79.12;95710.50;5072362;28;20740;-61
2021/04/30 06:44:23;;;;;;;1999.90;999.90;;;;;;;20.31;80.84;95710.66;5072396;28;20313;-61
2021/04/30 06:46:50;;;;;;;1999.90;999.90;;;;;;;20.42;73.10;95718.78;5072562;28;20201;-62
2021/04/30 06:49:18;;;;;;;1999.90;999.90;;;;;;;20.54;71.66;95727.28;5072795;28;20663;-62
2021/04/30 06:51:45;;;;;;;1999.90;999.90;;;;;;;20.43;72.64;95722.94;5072431;28;20204;-61
2021/04/30 06:54:12;;;;;;;1999.90;999.90;;;;;;;20.40;73.41;95716.50;5072253;28;20193;-63
2021/04/30 06:56:38;;;;;;;1999.90;999.90;;;;;;;20.52;73.23;95718.22;5072488;28;20242;-62
2021/04/30 06:59:06;;;;;;;1999.90;999.90;;;;;;;20.65;70.92;95716.91;5072264;28;20235;-62
2021/04/30 07:01:32;;;;;;;1999.90;999.90;;;;;;;20.86;76.06;95708.59;5072039;28;20283;-61
2021/04/30 07:03:59;;;;;;;1999.90;999.90;;;;;;;21.07;72.40;95716.81;5071896;28;20196;-63
2021/04/30 07:06:27;;;;;;;1999.90;999.90;;;;;;;21.36;69.46;95713.53;5072374;28;20205;-63
2021/04/30 07:08:54;;;;;;;1999.90;999.90;;;;;;;21.52;64.40;95710.72;5071845;28;20201;-62
2021/04/30 07:11:21;;;;;;;1999.90;999.90;;;;;;;21.75;64.84;95703.47;5072065;28;20624;-62
2021/04/30 07:13:48;;;;;;;1999.90;999.90;;;;;;;21.80;64.53;95702.38;5071385;28;20960;-62
2021/04/30 07:16:15;;;;;;;1999.90;999.90;;;;;;;21.71;62.58;95697.38;5071600;28;20702;-63
2021/04/30 07:18:42;;;;;;;1999.90;999.90;;;;;;;21.61;63.90;95703.28;5071653;28;20192;-63
2021/04/30 07:21:09;;;;;;;1999.90;999.90;;;;;;;21.70;64.27;95703.00;5071575;28;20729;-63
2021/04/30 07:23:36;;;;;;;1999.90;999.90;;;;;;;21.98;63.76;95706.03;5071639;28;20200;-61
2021/04/30 07:26:04;;;;;;;1999.90;999.90;;;;;;;22.14;62.29;95697.88;5070615;28;20228;-63
2021/04/30 07:28:31;;;;;;;1999.90;999.90;;;;;;;22.53;59.24;95703.56;5071562;28;20218;-63
2021/04/30 07:30:58;;;;;;;1999.90;999.90;;;;;;;22.54;61.31;95707.75;5071369;28;20207;-64
2021/04/30 07:33:26;;;;;;;1999.90;999.90;;;;;;;22.70;60.51;95703.78;5072215;28;20279;-63
2021/04/30 07:35:52;;;;;;;1999.90;999.90;;;;;;;22.67;58.49;95704.47;5071620;28;20341;-64
2021/04/30 07:38:19;;;;;;;1999.90;999.90;;;;;;;22.71;61.20;95701.91;5071411;28;20287;-62
2021/04/30 07:40:47;;;;;;;1999.90;999.90;;;;;;;22.76;59.46;95698.91;5071253;28;20552;-64
2021/04/30 07:43:16;;;;;;;1999.90;999.90;;;;;;;22.83;58.05;95692.88;5071177;28;20200;-64
2021/04/30 07:45:45;;;;;;;1999.90;999.90;;;;;;;22.94;56.36;95693.75;5071112;28;20232;-63
2021/04/30 07:48:12;;;;;;;1999.90;999.90;;;;;;;23.07;58.06;95689.66;5071202;28;20193;-63
2021/04/30 07:50:40;;;;;;;1999.90;999.90;;;;;;;23.36;51.99;95683.41;5070970;28;20192;-64
2021/04/30 07:53:07;;;;;;;1999.90;999.90;;;;;;;23.37;51.70;95687.59;5071057;28;20220;-63
2021/04/30 07:55:34;;;;;;;1999.90;999.90;;;;;;;23.45;50.80;95681.22;5070968;28;20280;-63
2021/04/30 07:58:03;;;;;;;1999.90;999.90;;;;;;;23.72;50.02;95679.06;5070885;28;20748;-63
2021/04/30 08:00:30;;;;;;;1999.90;999.90;;;;;;;23.85;47.73;95674.22;5070848;28;20217;-62
2021/04/30 08:02:57;;;;;;;1999.90;999.90;;;;;;;23.83;46.47;95671.91;5071249;28;20204;-63
2021/04/30 08:05:24;;;;;;;1999.90;999.90;;;;;;;23.93;47.14;95671.19;5070939;28;20580;-63
2021/04/30 08:07:51;;;;;;;1999.90;999.90;;;;;;;24.02;49.43;95673.50;5070860;28;20280;-62
2021/04/30 08:10:18;;;;;;;1999.90;999.90;;;;;;;24.28;51.93;95659.94;5070730;28;20199;-63
2021/04/30 08:12:45;;;;;;;1999.90;999.90;;;;;;;24.49;49.43;95663.75;5070804;28;20216;-63
2021/04/30 08:15:14;;;;;;;1999.90;999.90;;;;;;;24.62;44.31;95662.25;5070632;28;20706;-63
2021/04/30 08:17:44;;;;;;;1999.90;999.90;;;;;;;24.55;43.00;95655.06;5070702;28;20294;-62
2021/04/30 08:20:12;;;;;;;1999.90;999.90;;;;;;;24.57;44.23;95650.09;5070422;28;20196;-64
2021/04/30 08:22:40;;;;;;;1999.90;999.90;;;;;;;24.56;46.00;95658.47;5070590;28;20199;-63
2021/04/30 08:25:08;;;;;;;1999.90;999.90;;;;;;;24.57;44.33;95654.66;5070180;28;20726;-63
2021/04/30 08:27:36;;;;;;;1999.90;999.90;;;;;;;24.80;46.39;95647.06;5070896;28;20205;-62
2021/04/30 08:30:04;;;;;;;1999.90;999.90;;;;;;;25.14;46.31;95642.13;5070681;28;20212;-62
2021/04/30 08:32:32;;;;;;;1999.90;999.90;;;;;;;24.77;42.69;95634.53;5070565;28;20199;-63
2021/04/30 08:34:59;;;;;;;1999.90;999.90;;;;;;;24.92;44.34;95637.97;5070245;28;20193;-63
2021/04/30 08:37:26;;;;;;;1999.90;999.90;;;;;;;25.10;41.62;95644.78;5070200;28;20200;-63
2021/04/30 08:39:52;;;;;;;1999.90;999.90;;;;;;;25.14;39.07;95634.91;5069991;28;20304;-62
2021/04/30 08:42:20;;;;;;;1999.90;999.90;;;;;;;25.09;40.47;95627.31;5070795;28;20188;-61
2021/04/30 08:44:47;;;;;;;1999.90;999.90;;;;;;;25.08;38.46;95627.69;5070002;28;20224;-64
2021/04/30 08:47:17;;;;;;;1999.90;999.90;;;;;;;25.18;39.49;95624.25;5070217;28;20207;-62
2021/04/30 08:49:45;;;;;;;1999.90;999.90;;;;;;;25.27;39.35;95616.63;5070229;28;20629;-63
2021/04/30 08:52:12;;;;;;;1999.90;999.90;;;;;;;25.44;38.69;95610.50;5070035;28;20192;-64
2021/04/30 08:54:39;;;;;;;1999.90;999.90;;;;;;;25.37;38.25;95612.41;5070268;28;20197;-63
2021/04/30 08:57:11;;;;;;;1999.90;999.90;;;;;;;25.34;39.54;95611.28;5070263;28;20203;-63
2021/04/30 08:59:38;;;;;;;1999.90;999.90;;;;;;;25.30;38.90;95610.53;5069934;28;20235;-62
2021/04/30 09:02:06;;;;;;;1999.90;999.90;;;;;;;25.15;38.67;95611.72;5069973;28;20253;-63
2021/04/30 09:04:34;;;;;;;1999.90;999.90;;;;;;;25.42;37.54;95612.78;5070005;28;20228;-63
2021/04/30 09:07:14;;;;;;;1999.90;999.90;;;;;;;25.58;38.29;95612.38;5069844;28;20192;-64
2021/04/30 09:10:00;;;;;;;1999.90;999.90;;;;;;;25.78;38.50;95612.66;5070160;28;20192;-62
2021/04/30 09:12:28;;;;;;;1999.90;999.90;;;;;;;26.03;38.90;95613.28;5070011;28;20208;-63
2021/04/30 09:14:56;;;;;;;1999.90;999.90;;;;;;;25.94;38.35;95612.97;5069762;28;20262;-63
2021/04/30 09:17:27;;;;;;;1999.90;999.90;;;;;;;25.94;36.60;95618.28;5069744;28;20204;-62
2021/04/30 09:19:55;;;;;;;1999.90;999.90;;;;;;;25.92;37.83;95597.34;5069791;28;20196;-62
2021/04/30 09:22:24;;;;;;;1999.90;999.90;;;;;;;26.15;40.46;95594.19;5069971;28;20651;-62
2021/04/30 09:24:54;;;;;;;1999.90;999.90;;;;;;;26.23;37.04;95595.69;5069805;28;20224;-61
2021/04/30 09:27:38;;;;;;;1999.90;999.90;;;;;;;26.28;39.93;95594.50;5069889;28;20196;-62
2021/04/30 09:30:19;;;;;;;1999.90;999.90;;;;;;;26.44;37.97;95603.53;5070010;28;20200;-62
2021/04/30 09:33:06;;;;;;;1999.90;999.90;;;;;;;26.54;37.67;95594.69;5070046;28;20289;-63
2021/04/30 09:35:34;;;;;;;1999.90;999.90;;;;;;;26.43;41.99;95594.00;5069758;28;20663;-63
2021/04/30 09:38:18;;;;;;;1999.90;999.90;;;;;;;26.41;43.56;95588.31;5070151;28;20667;-63
2021/04/30 09:40:46;;;;;;;1999.90;999.90;;;;;;;26.79;45.71;95589.13;5069933;28;20697;-63
2021/04/30 09:43:14;;;;;;;1999.90;999.90;;;;;;;26.96;41.70;95582.13;5069714;28;20192;-63
2021/04/30 09:45:44;;;;;;;1999.90;999.90;;;;;;;27.17;42.33;95583.81;5069617;28;20278;-62
2021/04/30 09:48:11;;;;;;;1999.90;999.90;;;;;;;27.18;41.81;95586.09;5069804;28;20201;-63
2021/04/30 09:50:39;;;;;;;1999.90;999.90;;;;;;;27.17;43.72;95581.16;5072260;28;20663;-62
2021/04/30 09:53:10;;;;;;;1999.90;999.90;;;;;;;27.05;45.98;95581.69;5073706;28;20205;-61
2021/04/30 09:55:46;;;;;;;1999.90;999.90;;;;;;;26.72;41.39;95583.84;5073603;28;20291;-62
2021/04/30 09:58:18;;;;;;;1999.90;999.90;;;;;;;26.68;41.04;95579.72;5073459;28;20245;-64
2021/04/30 10:00:48;;;;;;;1999.90;999.90;;;;;;;26.52;36.05;95578.31;5073551;28;20196;-62
2021/04/30 10:03:20;;;;;;;1999.90;999.90;;;;;;;26.81;39.57;95570.06;5073207;28;20204;-62
2021/04/30 10:06:06;;;;;;;1999.90;999.90;;;;;;;26.76;36.13;95573.91;5073201;28;20263;-60
2021/04/30 10:08:35;;;;;;;1999.90;999.90;;;;;;;26.51;37.52;95576.03;5072996;28;20671;-63
2021/04/30 10:11:04;;;;;;;1999.90;999.90;;;;;;;26.46;35.22;95571.88;5073114;28;20196;-63
2021/04/30 10:13:31;;;;;;;1999.90;999.90;;;;;;;26.54;36.50;95578.69;5072561;28;20212;-62
2021/04/30 10:15:59;;;;;;;1999.90;999.90;;;;;;;26.79;35.13;95562.47;5072940;28;20200;-63
2021/04/30 10:18:26;;;;;;;1999.90;999.90;;;;;;;26.98;35.33;95566.50;5073020;28;20200;-63
2021/04/30 10:20:53;;;;;;;1999.90;999.90;;;;;;;26.69;35.45;95560.66;5072826;28;20249;-62
2021/04/30 10:23:22;;;;;;;1999.90;999.90;;;;;;;26.85;35.03;95557.47;5072993;28;20278;-61
2021/04/30 10:25:52;;;;;;;1999.90;999.90;;;;;;;27.06;37.42;95548.47;5072663;28;20702;-63
2021/04/30 10:28:27;;;;;;;1999.90;999.90;;;;;;;26.98;35.09;95548.59;5072849;28;20200;-64
2021/04/30 10:31:01;;;;;;;1999.90;999.90;;;;;;;26.97;35.76;95540.97;5072749;28;20200;-62
2021/04/30 10:33:32;;;;;;;1999.90;999.90;;;;;;;26.96;35.53;95544.78;5072719;28;20196;-62
2021/04/30 10:36:06;;;;;;;1999.90;999.90;;;;;;;27.02;35.25;95537.88;5072611;28;20205;-64
2021/04/30 10:38:40;;;;;;;1999.90;999.90;;;;;;;27.08;35.69;95536.28;5072449;28;20201;-64
2021/04/30 10:41:10;;;;;;;1999.90;999.90;;;;;;;27.11;35.72;95526.69;5072445;28;20200;-64
2021/04/30 10:43:38;;;;;;;1999.90;999.90;;;;;;;27.24;37.07;95528.47;5072601;28;20196;-64
2021/04/30 10:46:08;;;;;;;1999.90;999.90;;;;;;;27.30;34.21;95529.50;5072344;28;20290;-65
2021/04/30 10:48:39;;;;;;;1999.90;999.90;;;;;;;27.14;34.29;95524.00;5072245;28;20596;-64
2021/04/30 10:51:12;;;;;;;1999.90;999.90;;;;;;;26.88;36.76;95524.69;5072434;28;20207;-64
2021/04/30 10:53:40;;;;;;;1999.90;999.90;;;;;;;26.95;35.99;95516.59;5072442;28;20192;-64
2021/04/30 10:56:27;;;;;;;1999.90;999.90;;;;;;;27.02;35.48;95505.09;5072470;28;20196;-65